createdAt,value
2019-05-03T00:01:43.852Z,99404.89
2019-05-03T00:04:12.088Z,99404.22
2019-05-03T00:06:39.572Z,99411.19
2019-05-03T00:09:08.898Z,99410.22
2019-05-03T00:11:37.794Z,99410.56
2019-05-03T00:14:05.217Z,99417.19
2019-05-03T00:16:34.875Z,99408.44
2019-05-03T00:19:03.392Z,99415.77
2019-05-03T00:21:32.574Z,99418.36
2019-05-03T00:24:00.126Z,99374.97
2019-05-03T00:26:27.494Z,99421.09
2019-05-03T00:28:54.886Z,99415.16
2019-05-03T00:31:22.685Z,99419.20
2019-05-03T00:33:53.429Z,99422.33
2019-05-03T00:36:29.409Z,99415.16
2019-05-03T00:39:02.018Z,99416.47
2019-05-03T00:41:32.036Z,99415.86
2019-05-03T00:43:59.454Z,99416.39
2019-05-03T00:46:26.744Z,99408.59
2019-05-03T00:48:54.489Z,99402.66
2019-05-03T00:51:22.539Z,99408.52
2019-05-03T00:53:53.035Z,99404.63
2019-05-03T00:56:21.603Z,99405.45
2019-05-03T00:58:55.968Z,99405.29
2019-05-03T01:01:23.292Z,99403.91
2019-05-03T01:03:52.651Z,99399.69
2019-05-03T01:06:22.275Z,99400.20
2019-05-03T01:08:49.570Z,99406.22
2019-05-03T01:11:19.808Z,99409.34
2019-05-03T01:13:47.222Z,99412.56
2019-05-03T01:16:16.867Z,99411.66
2019-05-03T01:18:44.326Z,99409.84
2019-05-03T01:21:11.860Z,99404.48
2019-05-03T01:23:42.106Z,99414.25
2019-05-03T01:26:11.880Z,99417.38
2019-05-03T01:28:39.311Z,99423.43
2019-05-03T01:31:06.763Z,99439.08
2019-05-03T01:33:34.157Z,99444.55
2019-05-03T01:36:02.766Z,99441.67
2019-05-03T01:38:33.367Z,99444.02
2019-05-03T01:41:01.706Z,99446.68
2019-05-03T01:43:29.269Z,99448.32
2019-05-03T01:45:56.589Z,99444.03
2019-05-03T01:48:42.106Z,99451.63
2019-05-03T01:51:32.724Z,99447.15
2019-05-03T01:54:01.694Z,99454.23
2019-05-03T01:56:29.152Z,99459.01
2019-05-03T01:58:56.444Z,99457.55
2019-05-03T02:01:36.515Z,99457.71
2019-05-03T02:04:12.697Z,99453.36
2019-05-03T02:06:40.077Z,99457.53
2019-05-03T02:09:07.804Z,99460.05
2019-05-03T02:11:35.112Z,99467.00
2019-05-03T02:14:03.618Z,99460.69
2019-05-03T02:16:32.518Z,99469.28
2019-05-03T02:18:59.936Z,99469.59
2019-05-03T02:21:27.236Z,99473.56
2019-05-03T02:23:55.637Z,99472.71
2019-05-03T02:26:22.914Z,99476.50
2019-05-03T02:28:50.196Z,99474.55
2019-05-03T02:31:17.520Z,99478.38
2019-05-03T02:33:45.037Z,99476.56
2019-05-03T02:36:13.670Z,99477.56
2019-05-03T02:38:42.900Z,99483.37
2019-05-03T02:41:13.211Z,99482.69
2019-05-03T02:43:45.287Z,99480.23
2019-05-03T02:46:36.156Z,99484.19
2019-05-03T02:49:26.532Z,99486.98
2019-05-03T02:51:55.430Z,99484.86
2019-05-03T02:54:26.998Z,99488.82
2019-05-03T02:56:55.766Z,99484.34
2019-05-03T02:59:22.466Z,99489.95
2019-05-03T03:01:49.807Z,99488.80
2019-05-03T03:04:17.192Z,99491.78
2019-05-03T03:06:45.510Z,99496.24
2019-05-03T03:09:16.447Z,99493.42
2019-05-03T03:11:45.745Z,99491.45
2019-05-03T03:16:37.710Z,99492.77
2019-05-03T03:19:06.638Z,99502.05
2019-05-03T03:21:37.998Z,99505.67
2019-05-03T03:24:11.943Z,99509.30
2019-05-03T03:26:43.336Z,99505.47
2019-05-03T03:29:16.103Z,99508.62
2019-05-03T03:32:18.410Z,99498.55
2019-05-03T03:34:56.843Z,99503.17
2019-05-03T03:37:20.900Z,99501.34
2019-05-03T03:39:48.628Z,99502.83
2019-05-03T03:42:18.249Z,99505.98
2019-05-03T03:44:45.792Z,99504.30
2019-05-03T03:47:16.693Z,99509.25
2019-05-03T03:49:46.309Z,99499.81
2019-05-03T03:52:15.999Z,99512.06
2019-05-03T03:54:45.678Z,99507.10
2019-05-03T03:57:16.114Z,99514.73
2019-05-03T03:59:45.429Z,99523.66
2019-05-03T04:02:15.839Z,99525.50
2019-05-03T04:04:44.918Z,99530.47
2019-05-03T04:07:11.576Z,99533.55
2019-05-03T04:09:39.617Z,99530.80
2019-05-03T04:12:07.024Z,99535.58
2019-05-03T04:14:48.716Z,99540.39
2019-05-03T04:17:29.390Z,99544.69
2019-05-03T04:19:57.240Z,99544.98
2019-05-03T04:22:25.442Z,99549.78
2019-05-03T04:24:55.253Z,99555.72
2019-05-03T04:27:26.832Z,99558.37
2019-05-03T04:29:51.874Z,99555.05
2019-05-03T04:32:19.183Z,99566.45
2019-05-03T04:34:46.510Z,99563.09
2019-05-03T04:37:16.309Z,99572.86
2019-05-03T04:39:45.674Z,99572.55
2019-05-03T04:42:12.568Z,99580.21
2019-05-03T04:44:40.069Z,99586.84
2019-05-03T04:47:07.560Z,99591.98
2019-05-03T04:49:36.264Z,99584.03
2019-05-03T04:52:05.771Z,99587.65
2019-05-03T04:54:38.868Z,99595.46
2019-05-03T04:57:06.741Z,99592.47
2019-05-03T04:59:35.872Z,99592.14
2019-05-03T05:02:06.060Z,99600.08
2019-05-03T05:04:35.500Z,99602.72
2019-05-03T05:07:02.335Z,99606.37
2019-05-03T05:09:29.599Z,99610.16
2019-05-03T05:11:56.941Z,99608.67
2019-05-03T05:14:25.842Z,99610.16
2019-05-03T05:16:55.664Z,99609.83
2019-05-03T05:19:36.524Z,99610.00
2019-05-03T05:22:08.939Z,99612.84
2019-05-03T05:24:36.203Z,99612.48
2019-05-03T05:27:09.949Z,99625.89
2019-05-03T05:29:37.860Z,99625.71
2019-05-03T05:32:05.364Z,99623.85
2019-05-03T05:34:34.782Z,99629.81
2019-05-03T05:37:01.966Z,99638.77
2019-05-03T05:39:29.224Z,99635.56
2019-05-03T05:41:56.478Z,99631.06
2019-05-03T05:44:24.775Z,99638.17
2019-05-03T05:47:25.417Z,99632.49
2019-05-03T05:50:05.378Z,99637.55
2019-05-03T05:52:34.523Z,99642.17
2019-05-03T05:55:16.016Z,99644.68
2019-05-03T05:58:02.873Z,99643.54
2019-05-03T06:00:27.738Z,99643.78
2019-05-03T06:02:55.231Z,99644.77
2019-05-03T06:05:22.768Z,99647.39
2019-05-03T06:08:25.119Z,99650.02
2019-05-03T06:11:10.669Z,99648.92
2019-05-03T06:13:48.594Z,99649.48
2019-05-03T06:16:24.553Z,99654.69
2019-05-03T06:19:17.181Z,99653.95
2019-05-03T06:22:09.721Z,99647.00
2019-05-03T06:24:41.651Z,99658.11
2019-05-03T06:27:29.009Z,99660.31
2019-05-03T06:29:59.715Z,99662.91
2019-05-03T06:32:30.834Z,99650.44
2019-05-03T06:34:59.145Z,99660.19
2019-05-03T06:37:29.070Z,99659.04
2019-05-03T06:39:56.331Z,99659.84
2019-05-03T06:42:25.321Z,99664.45
2019-05-03T06:44:54.518Z,99654.34
2019-05-03T06:47:25.157Z,99659.30
2019-05-03T06:49:55.288Z,99658.66
2019-05-03T06:52:27.594Z,99663.23
2019-05-03T06:54:51.808Z,99665.94
2019-05-03T06:57:19.552Z,99673.55
2019-05-03T06:59:57.906Z,99664.31
2019-05-03T07:03:04.795Z,99656.02
2019-05-03T07:05:51.412Z,99661.91
2019-05-03T07:08:47.306Z,99673.78
2019-05-03T07:11:16.792Z,99667.81
2019-05-03T07:13:44.945Z,99665.42
2019-05-03T07:16:12.467Z,99666.75
2019-05-03T07:18:39.984Z,99665.89
2019-05-03T07:21:07.369Z,99664.25
2019-05-03T07:23:35.133Z,99662.08
2019-05-03T07:26:02.564Z,99667.22
2019-05-03T07:28:29.890Z,99659.95
2019-05-03T07:30:59.163Z,99661.66
2019-05-03T07:33:31.247Z,99663.27
2019-05-03T07:35:58.496Z,99676.79
2019-05-03T07:38:25.783Z,99673.93
2019-05-03T07:40:54.981Z,99670.93
2019-05-03T07:43:24.380Z,99667.30
2019-05-03T07:45:51.509Z,99660.60
2019-05-03T07:48:18.757Z,99660.30
2019-05-03T07:50:46.166Z,99658.59
2019-05-03T07:53:15.105Z,99660.22
2019-05-03T07:56:08.050Z,99660.12
2019-05-03T07:58:35.555Z,99628.66
2019-05-03T08:01:09.585Z,99655.88
2019-05-03T08:03:34.966Z,99658.80
2019-05-03T08:06:04.764Z,99663.38
2019-05-03T08:08:32.093Z,99654.98
2019-05-03T08:10:59.841Z,99653.48
2019-05-03T08:13:27.329Z,99655.48
2019-05-03T08:15:55.755Z,99657.92
2019-05-03T08:18:25.634Z,99661.41
2019-05-03T08:20:55.393Z,99659.14
2019-05-03T08:23:27.418Z,99653.28
2019-05-03T08:25:51.942Z,99644.77
2019-05-03T08:28:20.254Z,99647.84
2019-05-03T08:30:58.555Z,99644.57
2019-05-03T08:33:44.826Z,99649.92
2019-05-03T08:36:12.209Z,99648.11
2019-05-03T08:38:39.512Z,99649.86
2019-05-03T08:41:09.266Z,99652.49
2019-05-03T08:43:36.538Z,99651.55
2019-05-03T08:46:04.584Z,99660.73
2019-05-03T08:48:32.186Z,99657.11
2019-05-03T08:50:59.438Z,99659.20
2019-05-03T08:53:27.766Z,99658.48
2019-05-03T08:55:55.381Z,99658.11
2019-05-03T08:58:25.820Z,99660.58
2019-05-03T09:00:54.712Z,99658.20
2019-05-03T09:03:22.105Z,99658.09
2019-05-03T09:05:49.413Z,99669.24
2019-05-03T09:08:16.626Z,99654.83
2019-05-03T09:11:09.239Z,99651.68
2019-05-03T09:14:02.110Z,99656.78
2019-05-03T09:16:29.510Z,99650.60
2019-05-03T09:18:56.805Z,99654.18
2019-05-03T09:21:25.496Z,99647.60
2019-05-03T09:23:55.214Z,99654.81
2019-05-03T09:26:22.133Z,99661.27
2019-05-03T09:28:50.457Z,99655.75
2019-05-03T09:31:17.729Z,99641.53
2019-05-03T09:33:45.312Z,99651.11
2019-05-03T09:36:14.727Z,99642.69
2019-05-03T09:38:42.146Z,99641.91
2019-05-03T09:41:09.597Z,99643.92
2019-05-03T09:43:36.935Z,99648.53
2019-05-03T09:46:05.113Z,99653.62
2019-05-03T09:48:34.552Z,99657.80
2019-05-03T09:51:01.927Z,99653.45
2019-05-03T09:53:35.012Z,99653.37
2019-05-03T09:56:02.245Z,99653.16
2019-05-03T09:58:29.516Z,99656.88
2019-05-03T10:00:58.341Z,99652.66
2019-05-03T10:03:26.459Z,99652.79
2019-05-03T10:05:55.363Z,99649.70
2019-05-03T10:08:25.246Z,99650.19
2019-05-03T10:11:09.942Z,99654.89
2019-05-03T10:13:37.393Z,99652.36
2019-05-03T10:16:06.007Z,99644.47
2019-05-03T10:18:34.929Z,99637.91
2019-05-03T10:21:03.142Z,99644.45
2019-05-03T10:23:38.828Z,99638.31
2019-05-03T10:26:06.522Z,99649.39
2019-05-03T10:28:33.865Z,99647.98
2019-05-03T10:31:01.255Z,99637.45
2019-05-03T10:33:35.354Z,99635.49
2019-05-03T10:36:02.140Z,99635.05
2019-05-03T10:38:29.512Z,99617.81
2019-05-03T10:40:56.894Z,99621.76
2019-05-03T10:43:24.853Z,99630.46
2019-05-03T10:45:52.366Z,99622.27
2019-05-03T10:48:19.622Z,99614.23
2019-05-03T10:50:46.990Z,99618.13
2019-05-03T10:53:21.104Z,99618.77
2019-05-03T10:56:06.575Z,99618.66
2019-05-03T10:58:35.655Z,99624.01
2019-05-03T11:01:04.965Z,99619.09
2019-05-03T11:03:34.312Z,99613.78
2019-05-03T11:06:01.949Z,99611.61
2019-05-03T11:08:30.164Z,99618.23
2019-05-03T11:10:57.765Z,99611.56
2019-05-03T11:13:26.495Z,99600.68
2019-05-03T11:15:54.896Z,99605.52
2019-05-03T11:18:25.175Z,99600.25
2019-05-03T11:20:54.507Z,99599.98
2019-05-03T11:23:21.852Z,99599.97
2019-05-03T11:25:49.155Z,99602.46
2019-05-03T11:28:21.368Z,99607.05
2019-05-03T11:30:55.590Z,99611.57
2019-05-03T11:33:27.355Z,99602.34
2019-05-03T11:36:31.697Z,99599.23
2019-05-03T11:38:58.514Z,99599.13
2019-05-03T11:41:32.472Z,99591.45
2019-05-03T11:44:17.489Z,99603.41
2019-05-03T11:46:44.933Z,99599.61
2019-05-03T11:49:14.791Z,99608.20
2019-05-03T11:51:42.161Z,99608.62
2019-05-03T11:54:09.433Z,99609.47
2019-05-03T11:56:40.410Z,99608.20
2019-05-03T11:59:07.984Z,99609.61
2019-05-03T12:01:51.687Z,99598.88
2019-05-03T12:04:19.385Z,99592.03
2019-05-03T12:06:46.954Z,99589.14
2019-05-03T12:09:15.480Z,99589.05
2019-05-03T12:11:42.990Z,99589.45
2019-05-03T12:14:11.055Z,99591.97
2019-05-03T12:17:11.949Z,99590.01
2019-05-03T12:19:16.733Z,99590.41
2019-05-03T12:21:44.238Z,99595.61
2019-05-03T12:24:15.905Z,99605.13
2019-05-03T12:26:46.838Z,99600.52
2019-05-03T12:29:15.233Z,99601.59
2019-05-03T12:31:42.336Z,99595.56
2019-05-03T12:34:09.782Z,99595.89
2019-05-03T12:36:39.154Z,99601.41
2019-05-03T12:41:20.698Z,99575.36
2019-05-03T12:43:48.031Z,99586.78
2019-05-03T12:46:16.900Z,99577.42
2019-05-03T12:48:44.828Z,99579.05
2019-05-03T12:51:13.031Z,99564.98
2019-05-03T12:53:41.501Z,99569.72
2019-05-03T12:56:12.776Z,99575.30
2019-05-03T12:58:55.217Z,99570.25
2019-05-03T13:01:47.556Z,99565.97
2019-05-03T13:04:18.886Z,99577.78
2019-05-03T13:06:51.433Z,99567.05
2019-05-03T13:09:18.892Z,99572.92
2019-05-03T13:11:55.191Z,99565.50
2019-05-03T13:14:17.255Z,99554.46
2019-05-03T13:16:44.677Z,99555.03
2019-05-03T13:19:12.044Z,99542.36
2019-05-03T13:21:39.430Z,99551.52
2019-05-03T13:24:06.782Z,99540.66
2019-05-03T13:26:35.019Z,99541.64
2019-05-03T13:29:02.554Z,99540.81
2019-05-03T13:31:30.840Z,99537.85
2019-05-03T13:33:58.187Z,99538.97
2019-05-03T13:36:25.630Z,99540.28
2019-05-03T13:38:55.852Z,99537.87
2019-05-03T13:41:22.092Z,99534.26
2019-05-03T13:43:49.371Z,99538.35
2019-05-03T13:46:16.683Z,99530.39
2019-05-03T13:48:46.651Z,99526.72
2019-05-03T13:51:14.744Z,99523.67
2019-05-03T13:53:42.265Z,99516.27
2019-05-03T13:56:09.813Z,99514.38
2019-05-03T13:58:37.210Z,99511.45
2019-05-03T14:01:06.044Z,99507.48
2019-05-03T14:03:35.181Z,99511.42
2019-05-03T14:06:07.645Z,99508.11
2019-05-03T14:08:34.996Z,99505.17
2019-05-03T14:11:02.510Z,99503.16
2019-05-03T14:13:29.785Z,99500.04
2019-05-03T14:15:57.048Z,99499.30
2019-05-03T14:18:26.200Z,99459.06
2019-05-03T14:21:14.960Z,99482.91
2019-05-03T14:24:00.272Z,99483.80
2019-05-03T14:26:27.625Z,99480.33
2019-05-03T14:28:55.020Z,99488.09
2019-05-03T14:31:22.357Z,99484.94
2019-05-03T14:33:49.676Z,99487.72
2019-05-03T14:36:17.035Z,99484.08
2019-05-03T14:38:46.891Z,99483.80
2019-05-03T14:41:15.102Z,99480.94
2019-05-03T14:43:42.542Z,99483.60
2019-05-03T14:46:09.891Z,99478.23
2019-05-03T14:48:37.273Z,99474.52
2019-05-03T14:51:05.507Z,99476.09
2019-05-03T14:53:40.032Z,99471.33
2019-05-03T14:56:14.947Z,99483.44
2019-05-03T14:59:09.775Z,99479.84
2019-05-03T15:02:11.552Z,99480.30
2019-05-03T15:04:39.003Z,99475.87
2019-05-03T15:07:06.266Z,99467.70
2019-05-03T15:09:35.343Z,99465.34
2019-05-03T15:12:04.930Z,99460.33
2019-05-03T15:14:32.071Z,99468.18
2019-05-03T15:17:01.270Z,99466.64
2019-05-03T15:19:28.504Z,99463.28
2019-05-03T15:21:55.836Z,99458.52
2019-05-03T15:24:25.073Z,99459.08
2019-05-03T15:26:52.257Z,99458.83
2019-05-03T15:29:19.646Z,99464.66
2019-05-03T15:31:47.172Z,99473.73
2019-05-03T15:34:15.242Z,99431.20
2019-05-03T15:36:44.924Z,99471.41
2019-05-03T15:39:12.193Z,99464.17
2019-05-03T15:41:39.593Z,99463.21
2019-05-03T15:44:22.456Z,99462.52
2019-05-03T15:46:54.749Z,99455.42
2019-05-03T15:49:25.477Z,99470.64
2019-05-03T15:51:53.832Z,99459.37
2019-05-03T15:54:20.871Z,99461.13
2019-05-03T15:56:48.154Z,99467.78
2019-05-03T15:59:15.489Z,99456.81
2019-05-03T16:01:42.739Z,99457.89
2019-05-03T16:04:10.268Z,99459.47
2019-05-03T16:06:37.666Z,99457.09
2019-05-03T16:09:05.999Z,99457.89
2019-05-03T16:11:34.419Z,99456.77
2019-05-03T16:14:01.847Z,99462.75
2019-05-03T16:16:29.168Z,99285.02
2019-05-03T16:18:58.469Z,99454.09
2019-05-03T16:21:25.855Z,99453.73
2019-05-03T16:23:55.366Z,99439.07
2019-05-03T16:26:22.486Z,99443.17
2019-05-03T16:28:55.455Z,99423.56
2019-05-03T16:31:24.838Z,99441.74
2019-05-03T16:33:52.647Z,99431.22
2019-05-03T16:36:20.042Z,99435.90
2019-05-03T16:38:47.582Z,99433.09
2019-05-03T16:41:17.684Z,99440.34
2019-05-03T16:43:45.566Z,99438.12
2019-05-03T16:46:14.543Z,99424.07
2019-05-03T16:48:42.161Z,99443.63
2019-05-03T16:51:09.523Z,99439.22
2019-05-03T16:53:36.905Z,99438.42
2019-05-03T16:56:06.070Z,99431.70
2019-05-03T16:58:35.224Z,99427.86
2019-05-03T17:01:02.735Z,99430.73
2019-05-03T17:03:41.469Z,99436.05
2019-05-03T17:06:23.588Z,99430.98
2019-05-03T17:09:05.112Z,99436.48
2019-05-03T17:11:34.686Z,99437.64
2019-05-03T17:14:05.026Z,99429.59
2019-05-03T17:16:34.334Z,99438.24
2019-05-03T17:19:05.794Z,99438.91
2019-05-03T17:21:34.979Z,99436.70
2019-05-03T17:24:04.364Z,99436.73
2019-05-03T17:26:31.825Z,99428.75
2019-05-03T17:28:59.261Z,99438.59
2019-05-03T17:31:26.606Z,99436.02
2019-05-03T17:33:56.689Z,99440.25
2019-05-03T17:36:25.027Z,99431.66
2019-05-03T17:38:55.523Z,99431.03
2019-05-03T17:41:41.023Z,99440.83
2019-05-03T17:44:14.415Z,99433.72
2019-05-03T17:46:41.739Z,99438.17
2019-05-03T17:49:09.095Z,99438.04
2019-05-03T17:52:01.998Z,99434.22
2019-05-03T17:55:00.968Z,99437.08
2019-05-03T17:57:46.631Z,99433.20
2019-05-03T18:00:34.962Z,99432.27
2019-05-03T18:03:04.723Z,99433.73
2019-05-03T18:05:55.615Z,99411.30
2019-05-03T18:08:48.495Z,99429.75
2019-05-03T18:11:19.602Z,99428.30
2019-05-03T18:13:46.854Z,99432.64
2019-05-03T18:16:14.227Z,99428.39
2019-05-03T18:18:41.480Z,99432.00
2019-05-03T18:21:08.861Z,99429.72
2019-05-03T18:23:36.121Z,99433.42
2019-05-03T18:26:05.145Z,99429.25
2019-05-03T18:28:32.678Z,99432.03
2019-05-03T18:30:59.943Z,99427.59
2019-05-03T18:33:27.230Z,99424.03
2019-05-03T18:35:55.015Z,99436.44
2019-05-03T18:38:25.250Z,99432.86
2019-05-03T18:40:52.742Z,99436.23
2019-05-03T18:43:30.544Z,99433.30
2019-05-03T18:46:08.866Z,99446.84
2019-05-03T18:48:36.194Z,99440.08
2019-05-03T18:51:05.323Z,99443.28
2019-05-03T18:53:34.366Z,99443.45
2019-05-03T18:56:01.825Z,99446.23
2019-05-03T18:58:29.136Z,99445.74
2019-05-03T19:00:56.411Z,99450.63
2019-05-03T19:03:25.203Z,99445.13
2019-05-03T19:05:55.555Z,99444.77
2019-05-03T19:08:40.889Z,99442.69
2019-05-03T19:11:15.118Z,99448.05
2019-05-03T19:13:52.708Z,99447.69
2019-05-03T19:16:45.645Z,99445.67
2019-05-03T19:19:14.255Z,99450.95
2019-05-03T19:21:41.534Z,99449.77
2019-05-03T19:24:08.814Z,99452.37
2019-05-03T19:26:36.074Z,99446.88
2019-05-03T19:29:04.451Z,99450.50
2019-05-03T19:31:31.953Z,99446.47
2019-05-03T19:33:59.319Z,99446.47
2019-05-03T19:36:26.717Z,99449.06
2019-05-03T19:38:54.674Z,99447.23
2019-05-03T19:41:22.087Z,99452.38
2019-05-03T19:43:49.417Z,99443.04
2019-05-03T19:46:16.750Z,99440.41
2019-05-03T19:48:45.336Z,99439.78
2019-05-03T19:51:12.675Z,99433.77
2019-05-03T19:53:48.451Z,99430.44
2019-05-03T19:56:16.608Z,99435.89
2019-05-03T19:58:44.180Z,99437.27
2019-05-03T20:01:38.702Z,99434.00
2019-05-03T20:04:29.173Z,99436.30
2019-05-03T20:07:06.953Z,99434.40
2019-05-03T20:09:35.029Z,99435.12
2019-05-03T20:12:04.510Z,99442.84
2019-05-03T20:14:31.937Z,99434.77
2019-05-03T20:16:59.375Z,99432.66
2019-05-03T20:19:26.793Z,99440.55
2019-05-03T20:21:56.640Z,99433.28
2019-05-03T20:24:25.216Z,99432.44
2019-05-03T20:26:52.570Z,99431.63
2019-05-03T20:29:19.950Z,99437.69
2019-05-03T20:31:47.233Z,99436.84
2019-05-03T20:34:15.841Z,99433.02
2019-05-03T20:36:45.234Z,99424.86
2019-05-03T20:39:12.502Z,99388.74
2019-05-03T20:41:39.974Z,99426.89
2019-05-03T20:44:15.893Z,99426.32
2019-05-03T20:47:11.961Z,99429.99
2019-05-03T20:49:39.330Z,99427.00
2019-05-03T20:52:06.611Z,99425.68
2019-05-03T20:54:35.147Z,99422.11
2019-05-03T20:57:02.442Z,99424.15
2019-05-03T20:59:41.952Z,99428.80
2019-05-03T21:01:58.979Z,99429.32
2019-05-03T21:04:26.355Z,99432.70
2019-05-03T21:06:55.268Z,99435.90
2019-05-03T21:09:22.684Z,99433.97
2019-05-03T21:11:50.005Z,99361.17
2019-05-03T21:14:17.288Z,99433.70
2019-05-03T21:17:04.476Z,99433.38
2019-05-03T21:19:49.744Z,99431.93
2019-05-03T21:22:20.074Z,99434.75
2019-05-03T21:25:03.998Z,99430.14
2019-05-03T21:27:31.653Z,99334.18
2019-05-03T21:29:59.352Z,99427.16
2019-05-03T21:32:26.676Z,99341.77
2019-05-03T21:34:55.749Z,99428.99
2019-05-03T21:37:24.498Z,99426.52
2019-05-03T21:39:52.184Z,99422.89
2019-05-03T21:42:19.529Z,99434.27
2019-05-03T21:44:46.809Z,99426.50
2019-05-03T21:47:29.356Z,99426.17
2019-05-03T21:49:57.394Z,99439.89
2019-05-03T21:52:24.966Z,99425.02
2019-05-03T21:54:52.365Z,99424.69
2019-05-03T21:57:19.660Z,99424.02
2019-05-03T21:59:46.948Z,99423.20
2019-05-03T22:02:15.398Z,99414.11
2019-05-03T22:04:44.439Z,99414.43
2019-05-03T22:07:11.934Z,99425.69
2019-05-03T22:09:39.183Z,99422.88
2019-05-03T22:12:06.439Z,99428.80
2019-05-03T22:14:39.870Z,99426.78
2019-05-03T22:17:25.677Z,99426.46
2019-05-03T22:19:58.505Z,99426.96
2019-05-03T22:22:45.696Z,99423.32
2019-05-03T22:25:15.095Z,99421.83
2019-05-03T22:27:42.827Z,99421.05
2019-05-03T22:30:11.073Z,99419.02
2019-05-03T22:32:38.348Z,99412.44
2019-05-03T22:35:06.771Z,99415.75
2019-05-03T22:37:35.448Z,99323.39
2019-05-03T22:40:05.221Z,99415.95
2019-05-03T22:42:34.419Z,99422.69
2019-05-03T22:45:01.660Z,99418.88
2019-05-03T22:47:29.027Z,99416.77
2019-05-03T22:49:56.418Z,99412.11
2019-05-03T22:52:25.616Z,99416.91
2019-05-03T22:54:53.035Z,99416.24
2019-05-03T22:57:20.534Z,99409.96
2019-05-03T22:59:48.112Z,99411.92
2019-05-03T23:02:17.235Z,99410.77
2019-05-03T23:04:45.181Z,99407.34
2019-05-03T23:07:14.675Z,99410.12
2019-05-03T23:09:41.909Z,99405.20
2019-05-03T23:12:10.596Z,99402.69
2019-05-03T23:14:37.982Z,99395.41
2019-05-03T23:17:05.475Z,99394.73
2019-05-03T23:19:34.688Z,99387.63
2019-05-03T23:22:24.599Z,99380.98
2019-05-03T23:24:54.847Z,99379.66
2019-05-03T23:27:22.280Z,99385.09
2019-05-03T23:29:49.536Z,99374.54
2019-05-03T23:32:16.809Z,99370.64
2019-05-03T23:34:46.262Z,99369.45
2019-05-03T23:37:14.777Z,99369.81
2019-05-03T23:39:44.627Z,99366.88
2019-05-03T23:42:12.260Z,99368.03
2019-05-03T23:44:39.669Z,99367.35
2019-05-03T23:47:14.564Z,99367.03
2019-05-03T23:49:41.963Z,99365.81
2019-05-03T23:52:37.773Z,99366.30
2019-05-03T23:55:14.942Z,99363.89
2019-05-03T23:57:42.388Z,99309.74
